sensor_id;sensor_type;location;lat;lon;timestamp;pressure;altitude;pressure_sealevel;temperature;humidity
65280;BME280;51878;55.748;48.742;2023-03-15T00:00:44;99529.22;;;0.69;81.60
65280;BME280;51878;55.748;48.742;2023-03-15T00:05:48;99547.38;;;0.75;81.80
65280;BME280;51878;55.748;48.742;2023-03-15T00:10:50;99501.03;;;0.31;83.25
65280;BME280;51878;55.748;48.742;2023-03-15T00:15:56;99513.69;;;0.40;84.09
65280;BME280;51878;55.748;48.742;2023-03-15T00:20:58;99550.41;;;0.70;85.20
65280;BME280;51878;55.748;48.742;2023-03-15T00:26:01;99527.00;;;0.40;85.20
65280;BME280;51878;55.748;48.742;2023-03-15T00:31:18;99531.00;;;0.57;86.20
65280;BME280;51878;55.748;48.742;2023-03-15T00:36:21;99546.16;;;0.56;86.36
65280;BME280;51878;55.748;48.742;2023-03-15T00:41:27;99469.66;;;0.23;85.89
65280;BME280;51878;55.748;48.742;2023-03-15T00:46:29;99592.25;;;0.70;87.21
65280;BME280;51878;55.748;48.742;2023-03-15T00:51:31;99566.19;;;0.62;86.82
65280;BME280;51878;55.748;48.742;2023-03-15T00:56:35;99537.31;;;0.45;86.97
65280;BME280;51878;55.748;48.742;2023-03-15T01:01:37;99567.28;;;0.71;87.69
65280;BME280;51878;55.748;48.742;2023-03-15T01:06:41;99631.69;;;0.77;86.43
65280;BME280;51878;55.748;48.742;2023-03-15T01:11:44;99537.22;;;0.69;86.96
65280;BME280;51878;55.748;48.742;2023-03-15T01:16:46;99506.16;;;0.34;88.35
65280;BME280;51878;55.748;48.742;2023-03-15T01:21:48;99555.25;;;0.43;89.43
65280;BME280;51878;55.748;48.742;2023-03-15T01:26:50;99534.41;;;0.36;89.43
65280;BME280;51878;55.748;48.742;2023-03-15T01:31:52;99558.41;;;0.36;90.43
65280;BME280;51878;55.748;48.742;2023-03-15T01:36:54;99509.41;;;0.26;89.85
65280;BME280;51878;55.748;48.742;2023-03-15T01:41:56;99539.84;;;0.35;90.38
65280;BME280;51878;55.748;48.742;2023-03-15T01:46:58;99610.91;;;0.58;90.75
65280;BME280;51878;55.748;48.742;2023-03-15T01:52:06;99526.28;;;0.27;91.34
65280;BME280;51878;55.748;48.742;2023-03-15T01:57:17;99534.00;;;0.18;91.49
65280;BME280;51878;55.748;48.742;2023-03-15T02:02:20;99529.66;;;0.29;90.94
65280;BME280;51878;55.748;48.742;2023-03-15T02:07:25;99603.66;;;0.60;90.25
65280;BME280;51878;55.748;48.742;2023-03-15T02:12:31;99593.91;;;0.48;90.25
65280;BME280;51878;55.748;48.742;2023-03-15T02:17:43;99597.16;;;0.29;90.36
65280;BME280;51878;55.748;48.742;2023-03-15T02:22:53;99559.13;;;0.27;89.88
65280;BME280;51878;55.748;48.742;2023-03-15T02:28:17;99628.13;;;0.54;90.31
65280;BME280;51878;55.748;48.742;2023-03-15T02:33:31;99536.03;;;0.04;89.53
65280;BME280;51878;55.748;48.742;2023-03-15T02:38:33;99614.91;;;0.53;88.39
65280;BME280;51878;55.748;48.742;2023-03-15T02:43:35;99554.84;;;0.13;88.76
65280;BME280;51878;55.748;48.742;2023-03-15T02:48:39;99572.91;;;0.21;87.91
65280;BME280;51878;55.748;48.742;2023-03-15T02:53:43;99612.84;;;0.45;87.11
65280;BME280;51878;55.748;48.742;2023-03-15T02:58:45;99606.19;;;0.51;84.96
65280;BME280;51878;55.748;48.742;2023-03-15T03:03:47;99560.88;;;0.15;84.79
65280;BME280;51878;55.748;48.742;2023-03-15T03:08:49;99620.97;;;0.55;85.36
65280;BME280;51878;55.748;48.742;2023-03-15T03:13:51;99577.88;;;0.26;84.91
65280;BME280;51878;55.748;48.742;2023-03-15T03:18:53;99605.78;;;0.44;84.02
65280;BME280;51878;55.748;48.742;2023-03-15T03:23:56;99633.25;;;0.57;83.87
65280;BME280;51878;55.748;48.742;2023-03-15T03:28:58;99588.81;;;0.34;83.23
65280;BME280;51878;55.748;48.742;2023-03-15T03:34:00;99638.44;;;0.59;82.28
65280;BME280;51878;55.748;48.742;2023-03-15T03:39:02;99579.25;;;0.43;80.03
65280;BME280;51878;55.748;48.742;2023-03-15T03:44:05;99619.75;;;0.59;80.96
65280;BME280;51878;55.748;48.742;2023-03-15T03:49:07;99589.81;;;0.55;80.45
65280;BME280;51878;55.748;48.742;2023-03-15T03:54:09;99613.84;;;0.55;81.11
65280;BME280;51878;55.748;48.742;2023-03-15T03:59:11;99580.00;;;0.56;79.26
65280;BME280;51878;55.748;48.742;2023-03-15T04:04:13;99629.25;;;0.86;77.84
65280;BME280;51878;55.748;48.742;2023-03-15T04:09:15;99598.31;;;0.72;78.05
65280;BME280;51878;55.748;48.742;2023-03-15T04:14:17;99630.34;;;0.72;77.04
65280;BME280;51878;55.748;48.742;2023-03-15T04:19:20;99527.13;;;0.27;76.10
65280;BME280;51878;55.748;48.742;2023-03-15T04:24:22;99676.72;;;1.27;74.90
65280;BME280;51878;55.748;48.742;2023-03-15T04:29:24;99657.91;;;1.29;73.95
65280;BME280;51878;55.748;48.742;2023-03-15T04:34:27;99662.88;;;1.33;73.07
65280;BME280;51878;55.748;48.742;2023-03-15T04:39:30;99699.66;;;1.41;74.10
65280;BME280;51878;55.748;48.742;2023-03-15T04:44:32;99609.50;;;0.99;73.03
65280;BME280;51878;55.748;48.742;2023-03-15T04:49:34;99642.47;;;1.32;71.63
65280;BME280;51878;55.748;48.742;2023-03-15T04:54:36;99659.72;;;1.51;71.29
65280;BME280;51878;55.748;48.742;2023-03-15T04:59:40;99711.16;;;1.75;70.55
65280;BME280;51878;55.748;48.742;2023-03-15T05:04:42;99696.13;;;1.74;69.88
65280;BME280;51878;55.748;48.742;2023-03-15T05:09:44;99538.03;;;0.92;71.16
65280;BME280;51878;55.748;48.742;2023-03-15T05:14:50;99703.47;;;1.93;71.54
65280;BME280;51878;55.748;48.742;2023-03-15T05:19:56;99654.25;;;1.52;71.16
65280;BME280;51878;55.748;48.742;2023-03-15T05:24:58;99589.94;;;1.21;70.36
65280;BME280;51878;55.748;48.742;2023-03-15T05:30:00;99726.97;;;2.22;69.93
65280;BME280;51878;55.748;48.742;2023-03-15T05:35:06;99688.63;;;2.00;69.57
65280;BME280;51878;55.748;48.742;2023-03-15T05:40:08;99736.38;;;2.16;70.45
65280;BME280;51878;55.748;48.742;2023-03-15T05:45:11;99737.16;;;1.84;70.90
65280;BME280;51878;55.748;48.742;2023-03-15T05:50:13;99754.84;;;2.08;69.95
65280;BME280;51878;55.748;48.742;2023-03-15T05:55:15;99714.88;;;2.06;68.81
65280;BME280;51878;55.748;48.742;2023-03-15T06:00:17;99751.84;;;2.45;67.68
65280;BME280;51878;55.748;48.742;2023-03-15T06:05:20;99725.38;;;2.31;67.30
65280;BME280;51878;55.748;48.742;2023-03-15T06:10:22;99761.72;;;2.33;69.09
65280;BME280;51878;55.748;48.742;2023-03-15T06:15:24;99686.50;;;2.15;68.48
65280;BME280;51878;55.748;48.742;2023-03-15T06:20:27;99745.28;;;2.70;68.07
65280;BME280;51878;55.748;48.742;2023-03-15T06:25:29;99711.38;;;2.38;67.69
65280;BME280;51878;55.748;48.742;2023-03-15T06:30:31;99709.88;;;2.66;65.99
65280;BME280;51878;55.748;48.742;2023-03-15T06:35:33;99745.75;;;3.48;63.23
65280;BME280;51878;55.748;48.742;2023-03-15T06:40:36;99739.44;;;5.35;58.91
65280;BME280;51878;55.748;48.742;2023-03-15T06:45:38;99762.16;;;7.15;52.74
65280;BME280;51878;55.748;48.742;2023-03-15T06:50:40;99731.63;;;9.01;46.10
65280;BME280;51878;55.748;48.742;2023-03-15T06:55:48;99723.56;;;10.13;43.04
65280;BME280;51878;55.748;48.742;2023-03-15T07:00:51;99698.88;;;10.85;41.10
65280;BME280;51878;55.748;48.742;2023-03-15T07:05:53;99728.13;;;11.66;40.52
65280;BME280;51878;55.748;48.742;2023-03-15T07:10:55;99730.44;;;12.86;37.96
65280;BME280;51878;55.748;48.742;2023-03-15T07:15:58;99695.13;;;11.84;38.48
65280;BME280;51878;55.748;48.742;2023-03-15T07:21:01;99707.72;;;11.02;39.58
65280;BME280;51878;55.748;48.742;2023-03-15T07:26:04;99770.72;;;11.12;38.79
65280;BME280;51878;55.748;48.742;2023-03-15T07:31:06;99761.81;;;11.42;38.46
65280;BME280;51878;55.748;48.742;2023-03-15T07:36:14;99725.31;;;12.04;37.45
65280;BME280;51878;55.748;48.742;2023-03-15T07:41:23;99748.19;;;12.82;36.26
65280;BME280;51878;55.748;48.742;2023-03-15T07:46:27;99775.91;;;11.22;38.61
65280;BME280;51878;55.748;48.742;2023-03-15T07:51:29;99756.84;;;9.82;40.77
65280;BME280;51878;55.748;48.742;2023-03-15T07:56:31;99764.38;;;9.56;41.55
65280;BME280;51878;55.748;48.742;2023-03-15T08:01:33;99743.16;;;9.76;42.16
65280;BME280;51878;55.748;48.742;2023-03-15T08:06:35;99765.09;;;9.00;42.49
65280;BME280;51878;55.748;48.742;2023-03-15T08:11:37;99801.63;;;9.37;42.35
65280;BME280;51878;55.748;48.742;2023-03-15T08:16:40;99707.22;;;8.27;42.86
65280;BME280;51878;55.748;48.742;2023-03-15T08:21:42;99771.69;;;9.22;41.32
65280;BME280;51878;55.748;48.742;2023-03-15T08:26:46;99779.09;;;8.71;42.16
65280;BME280;51878;55.748;48.742;2023-03-15T08:31:54;99753.56;;;8.65;41.54
65280;BME280;51878;55.748;48.742;2023-03-15T08:37:00;99747.31;;;8.57;40.90
65280;BME280;51878;55.748;48.742;2023-03-15T08:42:02;99785.22;;;8.89;41.42
65280;BME280;51878;55.748;48.742;2023-03-15T08:47:05;99798.78;;;7.70;43.17
65280;BME280;51878;55.748;48.742;2023-03-15T08:52:07;99811.91;;;7.21;44.40
65280;BME280;51878;55.748;48.742;2023-03-15T08:57:09;99816.53;;;7.29;45.34
65280;BME280;51878;55.748;48.742;2023-03-15T09:02:13;99780.91;;;7.25;45.80
65280;BME280;51878;55.748;48.742;2023-03-15T09:07:15;99787.72;;;7.11;45.72
65280;BME280;51878;55.748;48.742;2023-03-15T09:12:17;99781.75;;;7.70;44.79
65280;BME280;51878;55.748;48.742;2023-03-15T09:17:19;99800.88;;;7.58;44.80
65280;BME280;51878;55.748;48.742;2023-03-15T09:22:21;99756.34;;;8.39;42.97
65280;BME280;51878;55.748;48.742;2023-03-15T09:27:39;99776.91;;;9.32;40.01
65280;BME280;51878;55.748;48.742;2023-03-15T09:32:41;99645.97;;;8.69;40.29
65280;BME280;51878;55.748;48.742;2023-03-15T09:37:45;99771.66;;;9.55;40.68
65280;BME280;51878;55.748;48.742;2023-03-15T09:48:04;99746.56;;;9.69;39.66
65280;BME280;51878;55.748;48.742;2023-03-15T09:58:27;99815.47;;;7.03;47.12
65280;BME280;51878;55.748;48.742;2023-03-15T10:03:35;99805.44;;;8.77;43.80
65280;BME280;51878;55.748;48.742;2023-03-15T10:08:40;99812.50;;;8.19;45.04
65280;BME280;51878;55.748;48.742;2023-03-15T10:24:14;99801.53;;;5.42;51.63
65280;BME280;51878;55.748;48.742;2023-03-15T10:29:20;99854.78;;;5.19;53.39
65280;BME280;51878;55.748;48.742;2023-03-15T10:34:23;99806.53;;;4.69;54.52
65280;BME280;51878;55.748;48.742;2023-03-15T10:39:27;99767.84;;;4.02;55.36
65280;BME280;51878;55.748;48.742;2023-03-15T10:44:35;99797.97;;;4.25;55.74
65280;BME280;51878;55.748;48.742;2023-03-15T10:49:39;99786.22;;;4.16;56.69
65280;BME280;51878;55.748;48.742;2023-03-15T10:54:42;99786.22;;;4.06;57.61
65280;BME280;51878;55.748;48.742;2023-03-15T10:59:58;99842.81;;;4.44;58.12
65280;BME280;51878;55.748;48.742;2023-03-15T11:10:20;99820.53;;;5.88;51.97
65280;BME280;51878;55.748;48.742;2023-03-15T11:15:23;99820.97;;;6.20;51.68
65280;BME280;51878;55.748;48.742;2023-03-15T11:20:29;99840.47;;;6.60;50.06
65280;BME280;51878;55.748;48.742;2023-03-15T11:25:32;99767.94;;;6.31;49.32
65280;BME280;51878;55.748;48.742;2023-03-15T11:30:37;99828.09;;;7.21;48.65
65280;BME280;51878;55.748;48.742;2023-03-15T11:35:43;99815.72;;;6.92;49.34
65280;BME280;51878;55.748;48.742;2023-03-15T11:40:53;99835.94;;;7.76;46.31
65280;BME280;51878;55.748;48.742;2023-03-15T11:45:59;99783.81;;;7.50;46.53
65280;BME280;51878;55.748;48.742;2023-03-15T11:51:04;99671.78;;;6.85;46.83
65280;BME280;51878;55.748;48.742;2023-03-15T11:56:37;99758.66;;;8.10;45.56
65280;BME280;51878;55.748;48.742;2023-03-15T12:01:48;99774.44;;;7.62;45.66
65280;BME280;51878;55.748;48.742;2023-03-15T12:06:52;99803.03;;;7.29;47.09
65280;BME280;51878;55.748;48.742;2023-03-15T12:12:33;99717.84;;;6.74;47.58
65280;BME280;51878;55.748;48.742;2023-03-15T12:22:31;99823.44;;;7.31;46.71
65280;BME280;51878;55.748;48.742;2023-03-15T12:27:35;99809.88;;;7.23;47.08
65280;BME280;51878;55.748;48.742;2023-03-15T12:32:46;99784.34;;;6.91;48.03
65280;BME280;51878;55.748;48.742;2023-03-15T12:37:51;99792.72;;;7.24;47.74
65280;BME280;51878;55.748;48.742;2023-03-15T12:53:00;99809.06;;;6.69;48.89
65280;BME280;51878;55.748;48.742;2023-03-15T12:58:03;99743.50;;;6.14;49.90
65280;BME280;51878;55.748;48.742;2023-03-15T13:03:10;99792.28;;;6.11;50.78
65280;BME280;51878;55.748;48.742;2023-03-15T13:08:22;99681.41;;;5.05;51.60
65280;BME280;51878;55.748;48.742;2023-03-15T13:18:58;99787.59;;;5.66;52.48
65280;BME280;51878;55.748;48.742;2023-03-15T13:24:11;99709.59;;;5.38;51.96
65280;BME280;51878;55.748;48.742;2023-03-15T13:29:20;99789.50;;;5.56;53.05
65280;BME280;51878;55.748;48.742;2023-03-15T13:34:24;99737.63;;;5.26;53.49
65280;BME280;51878;55.748;48.742;2023-03-15T13:39:31;99793.47;;;5.42;54.24
65280;BME280;51878;55.748;48.742;2023-03-15T13:44:34;99798.91;;;5.23;53.99
65280;BME280;51878;55.748;48.742;2023-03-15T13:49:36;99790.25;;;5.19;55.08
65280;BME280;51878;55.748;48.742;2023-03-15T13:54:39;99734.16;;;4.77;55.06
65280;BME280;51878;55.748;48.742;2023-03-15T14:00:09;99809.50;;;4.75;55.97
65280;BME280;51878;55.748;48.742;2023-03-15T14:05:45;99812.59;;;4.42;58.17
65280;BME280;51878;55.748;48.742;2023-03-15T14:11:06;99796.84;;;4.18;59.45
65280;BME280;51878;55.748;48.742;2023-03-15T14:16:15;99695.72;;;3.18;60.14
65280;BME280;51878;55.748;48.742;2023-03-15T14:21:27;99683.84;;;2.89;62.21
65280;BME280;51878;55.748;48.742;2023-03-15T14:26:39;99774.63;;;3.14;62.64
65280;BME280;51878;55.748;48.742;2023-03-15T14:31:48;99782.00;;;3.00;64.37
65280;BME280;51878;55.748;48.742;2023-03-15T14:36:51;99792.31;;;2.84;65.23
65280;BME280;51878;55.748;48.742;2023-03-15T14:41:56;99674.41;;;2.00;66.72
65280;BME280;51878;55.748;48.742;2023-03-15T14:46:58;99824.34;;;2.74;68.58
65280;BME280;51878;55.748;48.742;2023-03-15T14:52:03;99810.66;;;2.56;69.52
65280;BME280;51878;55.748;48.742;2023-03-15T14:57:07;99814.81;;;2.49;70.18
65280;BME280;51878;55.748;48.742;2023-03-15T15:02:14;99766.06;;;1.91;71.91
65280;BME280;51878;55.748;48.742;2023-03-15T15:07:22;99785.03;;;1.99;73.51
65280;BME280;51878;55.748;48.742;2023-03-15T15:12:24;99813.72;;;1.97;74.88
65280;BME280;51878;55.748;48.742;2023-03-15T15:17:26;99838.13;;;1.92;76.59
65280;BME280;51878;55.748;48.742;2023-03-15T15:22:29;99792.28;;;1.40;77.65
65280;BME280;51878;55.748;48.742;2023-03-15T15:27:31;99849.53;;;1.83;76.98
65280;BME280;51878;55.748;48.742;2023-03-15T15:32:33;99851.50;;;1.81;76.04
65280;BME280;51878;55.748;48.742;2023-03-15T15:37:35;99787.41;;;1.34;77.32
65280;BME280;51878;55.748;48.742;2023-03-15T15:42:37;99815.16;;;1.56;76.95
65280;BME280;51878;55.748;48.742;2023-03-15T15:47:39;99787.69;;;1.31;75.55
65280;BME280;51878;55.748;48.742;2023-03-15T15:52:47;99804.44;;;1.44;74.65
65280;BME280;51878;55.748;48.742;2023-03-15T15:57:50;99803.59;;;1.44;74.04
65280;BME280;51878;55.748;48.742;2023-03-15T16:02:56;99817.31;;;1.39;74.67
65280;BME280;51878;55.748;48.742;2023-03-15T16:08:01;99848.78;;;1.58;74.96
65280;BME280;51878;55.748;48.742;2023-03-15T16:13:05;99798.97;;;1.23;75.45
65280;BME280;51878;55.748;48.742;2023-03-15T16:18:11;99806.47;;;1.30;76.22
65280;BME280;51878;55.748;48.742;2023-03-15T16:23:20;99697.50;;;0.66;75.79
65280;BME280;51878;55.748;48.742;2023-03-15T16:28:23;99782.53;;;1.17;76.95
65280;BME280;51878;55.748;48.742;2023-03-15T16:33:25;99801.13;;;1.30;76.17
65280;BME280;51878;55.748;48.742;2023-03-15T16:38:29;99808.06;;;1.32;76.76
65280;BME280;51878;55.748;48.742;2023-03-15T16:43:33;99790.81;;;1.25;76.42
65280;BME280;51878;55.748;48.742;2023-03-15T16:48:35;99852.19;;;1.49;76.79
65280;BME280;51878;55.748;48.742;2023-03-15T16:53:38;99791.91;;;1.34;75.58
65280;BME280;51878;55.748;48.742;2023-03-15T16:58:42;99804.44;;;1.44;75.54
65280;BME280;51878;55.748;48.742;2023-03-15T17:03:45;99719.50;;;0.80;75.30
65280;BME280;51878;55.748;48.742;2023-03-15T17:14:01;99857.44;;;1.73;75.41
65280;BME280;51878;55.748;48.742;2023-03-15T17:19:08;99842.22;;;1.62;74.53
65280;BME280;51878;55.748;48.742;2023-03-15T17:24:11;99856.59;;;1.73;75.68
65280;BME280;51878;55.748;48.742;2023-03-15T17:29:14;99861.56;;;1.77;75.71
65280;BME280;51878;55.748;48.742;2023-03-15T17:34:16;99843.72;;;1.78;74.98
65280;BME280;51878;55.748;48.742;2023-03-15T17:39:19;99859.16;;;1.74;75.76
65280;BME280;51878;55.748;48.742;2023-03-15T17:44:21;99834.59;;;1.58;75.67
65280;BME280;51878;55.748;48.742;2023-03-15T17:49:24;99867.19;;;1.85;75.45
65280;BME280;51878;55.748;48.742;2023-03-15T17:54:26;99716.59;;;0.95;75.05
65280;BME280;51878;55.748;48.742;2023-03-15T17:59:28;99827.56;;;1.68;76.18
65280;BME280;51878;55.748;48.742;2023-03-15T18:04:30;99851.72;;;1.78;75.65
65280;BME280;51878;55.748;48.742;2023-03-15T18:09:32;99884.31;;;1.94;75.02
65280;BME280;51878;55.748;48.742;2023-03-15T18:14:34;99820.38;;;1.69;75.46
65280;BME280;51878;55.748;48.742;2023-03-15T18:19:38;99856.97;;;1.91;75.89
65280;BME280;51878;55.748;48.742;2023-03-15T18:24:41;99863.78;;;1.83;75.97
65280;BME280;51878;55.748;48.742;2023-03-15T18:29:44;99857.81;;;1.91;75.57
65280;BME280;51878;55.748;48.742;2023-03-15T18:34:46;99836.31;;;1.81;75.79
65280;BME280;51878;55.748;48.742;2023-03-15T18:39:48;99799.72;;;1.59;75.25
65280;BME280;51878;55.748;48.742;2023-03-15T18:44:50;99819.06;;;1.85;75.80
65280;BME280;51878;55.748;48.742;2023-03-15T18:49:52;99840.91;;;2.02;74.55
65280;BME280;51878;55.748;48.742;2023-03-15T18:55:05;99850.66;;;2.03;75.46
65280;BME280;51878;55.748;48.742;2023-03-15T19:00:12;99823.78;;;1.71;76.92
65280;BME280;51878;55.748;48.742;2023-03-15T19:05:15;99862.06;;;2.05;76.43
65280;BME280;51878;55.748;48.742;2023-03-15T19:10:18;99866.19;;;2.09;76.12
65280;BME280;51878;55.748;48.742;2023-03-15T19:15:21;99887.00;;;2.05;77.49
65280;BME280;51878;55.748;48.742;2023-03-15T19:20:24;99800.09;;;1.66;78.22
65280;BME280;51878;55.748;48.742;2023-03-15T19:25:29;99869.97;;;2.06;77.96
65280;BME280;51878;55.748;48.742;2023-03-15T19:30:31;99879.44;;;2.11;77.99
65280;BME280;51878;55.748;48.742;2023-03-15T19:35:33;99810.06;;;1.75;78.93
65280;BME280;51878;55.748;48.742;2023-03-15T19:40:36;99849.91;;;1.90;79.06
65280;BME280;51878;55.748;48.742;2023-03-15T19:45:38;99846.53;;;1.88;79.98
65280;BME280;51878;55.748;48.742;2023-03-15T19:50:40;99812.38;;;1.57;81.23
65280;BME280;51878;55.748;48.742;2023-03-15T19:55:42;99692.22;;;0.88;80.98
65280;BME280;51878;55.748;48.742;2023-03-15T20:00:44;99759.41;;;1.40;79.52
65280;BME280;51878;55.748;48.742;2023-03-15T20:05:46;99843.97;;;1.86;77.78
65280;BME280;51878;55.748;48.742;2023-03-15T20:10:57;99840.19;;;2.00;78.32
65280;BME280;51878;55.748;48.742;2023-03-15T20:16:00;99866.56;;;2.04;78.09
65280;BME280;51878;55.748;48.742;2023-03-15T20:21:03;99790.38;;;1.54;79.65
65280;BME280;51878;55.748;48.742;2023-03-15T20:26:11;99800.69;;;1.58;80.40
65280;BME280;51878;55.748;48.742;2023-03-15T20:31:15;99840.56;;;1.73;81.81
65280;BME280;51878;55.748;48.742;2023-03-15T20:36:18;99705.69;;;0.87;82.49
65280;BME280;51878;55.748;48.742;2023-03-15T20:41:21;99872.16;;;1.79;83.15
65280;BME280;51878;55.748;48.742;2023-03-15T20:46:23;99812.72;;;1.41;83.12
65280;BME280;51878;55.748;48.742;2023-03-15T20:51:25;99830.44;;;1.42;84.12
65280;BME280;51878;55.748;48.742;2023-03-15T20:56:27;99777.19;;;1.17;81.99
65280;BME280;51878;55.748;48.742;2023-03-15T21:01:31;99868.38;;;1.70;82.38
65280;BME280;51878;55.748;48.742;2023-03-15T21:06:35;99838.47;;;1.65;83.44
65280;BME280;51878;55.748;48.742;2023-03-15T21:11:37;99817.44;;;1.49;82.76
65280;BME280;51878;55.748;48.742;2023-03-15T21:16:39;99825.25;;;1.63;82.90
65280;BME280;51878;55.748;48.742;2023-03-15T21:21:41;99837.97;;;1.60;84.34
65280;BME280;51878;55.748;48.742;2023-03-15T21:26:44;99820.50;;;1.56;83.34
65280;BME280;51878;55.748;48.742;2023-03-15T21:31:49;99802.50;;;1.47;83.77
65280;BME280;51878;55.748;48.742;2023-03-15T21:36:51;99833.00;;;1.67;84.09
65280;BME280;51878;55.748;48.742;2023-03-15T21:41:53;99835.69;;;1.67;84.86
65280;BME280;51878;55.748;48.742;2023-03-15T21:46:55;99797.88;;;1.37;85.58
65280;BME280;51878;55.748;48.742;2023-03-15T21:51:58;99875.78;;;1.67;87.66
65280;BME280;51878;55.748;48.742;2023-03-15T21:57:00;99850.72;;;1.56;88.65
65280;BME280;51878;55.748;48.742;2023-03-15T22:02:02;99814.88;;;1.36;89.20
65280;BME280;51878;55.748;48.742;2023-03-15T22:07:05;99775.03;;;1.11;90.65
65280;BME280;51878;55.748;48.742;2023-03-15T22:12:07;99851.34;;;1.60;91.59
65280;BME280;51878;55.748;48.742;2023-03-15T22:17:10;99858.88;;;1.66;92.43
65280;BME280;51878;55.748;48.742;2023-03-15T22:22:14;99832.44;;;1.28;92.57
65280;BME280;51878;55.748;48.742;2023-03-15T22:27:16;99818.75;;;1.32;93.20
65280;BME280;51878;55.748;48.742;2023-03-15T22:32:18;99808.56;;;1.37;93.47
65280;BME280;51878;55.748;48.742;2023-03-15T22:37:20;99840.19;;;1.55;97.10
65280;BME280;51878;55.748;48.742;2023-03-15T22:42:22;99817.91;;;1.32;100.00
65280;BME280;51878;55.748;48.742;2023-03-15T22:47:24;99736.34;;;0.81;100.00
65280;BME280;51878;55.748;48.742;2023-03-15T22:52:26;99754.81;;;0.84;100.00
65280;BME280;51878;55.748;48.742;2023-03-15T22:57:29;99745.63;;;0.99;100.00
65280;BME280;51878;55.748;48.742;2023-03-15T23:02:31;99803.06;;;1.16;100.00
65280;BME280;51878;55.748;48.742;2023-03-15T23:07:33;99787.03;;;1.16;100.00
65280;BME280;51878;55.748;48.742;2023-03-15T23:12:35;99771.75;;;1.18;100.00
65280;BME280;51878;55.748;48.742;2023-03-15T23:17:38;99802.16;;;0.93;100.00
65280;BME280;51878;55.748;48.742;2023-03-15T23:22:40;99833.78;;;1.22;100.00
65280;BME280;51878;55.748;48.742;2023-03-15T23:27:42;99827.00;;;1.29;100.00
65280;BME280;51878;55.748;48.742;2023-03-15T23:32:44;99786.00;;;1.30;100.00
65280;BME280;51878;55.748;48.742;2023-03-15T23:37:46;99742.63;;;1.27;100.00
65280;BME280;51878;55.748;48.742;2023-03-15T23:42:48;99720.28;;;1.28;100.00
65280;BME280;51878;55.748;48.742;2023-03-15T23:48:00;99646.72;;;0.90;100.00
65280;BME280;51878;55.748;48.742;2023-03-15T23:53:05;99660.31;;;0.87;100.00
65280;BME280;51878;55.748;48.742;2023-03-15T23:58:07;99776.16;;;1.31;100.00
